Time;durP1;ratioP1;P1;durP2;ratioP2;P2;SDS_P1;SDS_P2;PMS_P1;PMS_P2;Temp;Humidity;BMP_temperature;BMP_pressure;BME280_temperature;BME280_humidity;BME280_pressure;Samples;Min_cycle;Max_cycle;Signal;HPM_P1;HPM_P2
2022/08/22 00:01:02;;;;;;;3.25;1.45;;;29.80;99.90;;;;;;6171224;23;20253;-94
2022/08/22 00:04:17;;;;;;;1.27;1.17;;;30.00;99.90;;;;;;6170226;23;20224;-94
2022/08/22 00:07:06;;;;;;;1.65;1.27;;;30.00;99.90;;;;;;6174319;23;20177;-95
2022/08/22 00:10:00;;;;;;;1.40;1.30;;;29.90;99.90;;;;;;6168804;23;20180;-94
2022/08/22 00:12:39;;;;;;;2.42;1.33;;;29.50;99.90;;;;;;6160603;23;20742;-93
2022/08/22 00:20:26;;;;;;;1.77;1.30;;;29.30;99.90;;;;;;6226532;23;20199;-93
2022/08/22 00:23:14;;;;;;;1.73;1.20;;;29.60;99.90;;;;;;6226740;23;20168;-94
2022/08/22 00:25:53;;;;;;;1.45;1.30;;;29.60;99.90;;;;;;6222323;23;20223;-93
2022/08/22 00:28:37;;;;;;;2.00;1.33;;;29.40;99.90;;;;;;6231763;23;20180;-93
2022/08/22 00:34:09;;;;;;;5.07;1.30;;;28.90;99.90;;;;;;6230718;23;20184;-92
2022/08/22 00:40:25;;;;;;;3.23;1.40;;;28.70;99.90;;;;;;6179270;23;20183;-92
2022/08/22 00:43:28;;;;;;;2.63;1.65;;;28.70;99.90;;;;;;6192536;23;20185;-92
2022/08/22 00:46:25;;;;;;;3.25;1.90;;;28.70;99.90;;;;;;6201182;23;20212;-93
2022/08/22 00:49:32;;;;;;;2.93;1.60;;;28.90;99.90;;;;;;6192671;23;20566;-93
2022/08/22 00:59:06;;;;;;;3.10;1.73;;;28.40;99.90;;;;;;6198703;23;20323;-92
2022/08/22 01:02:05;;;;;;;3.53;1.40;;;28.70;99.90;;;;;;6201877;23;20165;-92
2022/08/22 01:08:16;;;;;;;2.75;1.60;;;29.50;99.90;;;;;;6192679;23;20277;-92
2022/08/22 01:11:06;;;;;;;4.50;1.30;;;29.60;99.90;;;;;;6197811;23;20177;-93
2022/08/22 01:13:57;;;;;;;1.83;1.45;;;29.80;99.90;;;;;;6203235;23;20192;-93
2022/08/22 01:17:19;;;;;;;3.15;1.83;;;30.30;99.90;;;;;;6205856;23;20180;-93
2022/08/22 01:20:42;;;;;;;1.67;1.47;;;30.50;99.90;;;;;;6196492;23;20205;-92
2022/08/22 01:27:19;;;;;;;2.40;1.52;;;30.00;99.90;;;;;;6151780;23;20227;-91
2022/08/22 01:30:19;;;;;;;2.17;1.37;;;30.00;99.90;;;;;;6195214;23;20185;-94
2022/08/22 01:33:36;;;;;;;2.35;1.25;;;30.00;99.90;;;;;;6196419;23;20207;-93
2022/08/22 01:36:46;;;;;;;2.67;1.33;;;29.40;99.90;;;;;;6191152;23;20188;-94
2022/08/22 01:39:59;;;;;;;1.63;1.40;;;29.00;99.90;;;;;;6207084;23;20188;-94
2022/08/22 01:43:02;;;;;;;1.50;1.40;;;28.40;99.90;;;;;;6210766;23;20229;-94
2022/08/22 01:46:01;;;;;;;2.23;1.27;;;28.00;99.90;;;;;;6202729;23;20215;-94
2022/08/22 01:54:08;;;;;;;1.50;1.40;;;27.40;99.90;;;;;;6227114;23;20212;-93
2022/08/22 01:56:46;;;;;;;2.87;1.30;;;27.20;99.90;;;;;;6227717;23;20200;-94
2022/08/22 01:59:31;;;;;;;2.23;1.50;;;26.90;99.90;;;;;;6226560;23;20673;-94
2022/08/22 02:02:14;;;;;;;2.53;1.67;;;26.70;99.90;;;;;;6226371;23;20176;-94
2022/08/22 02:04:54;;;;;;;6.17;1.70;;;26.60;99.90;;;;;;6226241;23;20247;-95
2022/08/22 02:07:29;;;;;;;2.87;1.20;;;26.40;99.90;;;;;;6224530;23;20226;-96
2022/08/22 02:10:11;;;;;;;1.77;1.23;;;26.30;99.90;;;;;;6226245;23;20524;-95
2022/08/22 02:12:50;;;;;;;3.27;1.20;;;26.10;99.90;;;;;;6224223;23;20196;-95
2022/08/22 02:15:25;;;;;;;1.53;1.43;;;26.00;99.90;;;;;;6222870;23;20169;-94
2022/08/22 02:18:15;;;;;;;1.90;1.60;;;25.80;99.90;;;;;;6226874;23;20606;-95
2022/08/22 02:20:59;;;;;;;3.50;1.53;;;25.70;99.90;;;;;;6224706;23;20247;-95
2022/08/22 02:23:48;;;;;;;1.87;1.50;;;25.50;99.90;;;;;;6222939;23;20280;-95
2022/08/22 02:26:26;;;;;;;2.30;1.50;;;25.40;99.90;;;;;;6224603;23;20176;-92
2022/08/22 02:29:08;;;;;;;1.70;1.40;;;25.20;99.90;;;;;;6226148;23;20234;-93
2022/08/22 02:31:43;;;;;;;1.83;1.47;;;25.00;99.90;;;;;;6223379;23;20164;-94
2022/08/22 02:34:37;;;;;;;1.63;1.30;;;24.80;99.90;;;;;;6222494;23;20259;-94
2022/08/22 02:37:15;;;;;;;1.50;1.40;;;24.70;99.90;;;;;;6224326;23;20236;-95
2022/08/22 02:39:54;;;;;;;2.83;1.47;;;24.60;99.90;;;;;;6225230;23;20176;-94
2022/08/22 02:42:34;;;;;;;2.97;1.33;;;24.40;99.90;;;;;;6224181;23;20648;-94
2022/08/22 02:45:28;;;;;;;2.37;1.17;;;24.30;99.90;;;;;;6225215;23;20187;-94
2022/08/22 02:48:14;;;;;;;7.70;3.43;;;24.20;99.90;;;;;;6225938;23;20230;-94
2022/08/22 02:50:55;;;;;;;8.13;5.03;;;24.10;99.90;;;;;;6227198;23;20165;-94
2022/08/22 02:53:34;;;;;;;5.33;3.60;;;24.00;99.90;;;;;;6233030;23;20200;-94
2022/08/22 02:56:14;;;;;;;3.63;2.20;;;23.90;99.90;;;;;;6238253;23;20206;-94
2022/08/22 02:58:53;;;;;;;2.37;1.80;;;23.80;99.90;;;;;;6237301;23;20168;-95
2022/08/22 03:01:49;;;;;;;3.80;2.50;;;23.70;99.90;;;;;;6229593;23;20169;-94
2022/08/22 03:07:44;;;;;;;7.70;2.00;;;23.50;99.90;;;;;;6231860;23;20177;-94
2022/08/22 03:10:24;;;;;;;3.37;2.73;;;23.50;99.90;;;;;;6214302;23;20164;-94
2022/08/22 03:13:07;;;;;;;3.23;2.33;;;23.40;99.90;;;;;;6230954;23;20203;-95
2022/08/22 03:19:07;;;;;;;4.63;3.63;;;23.30;99.90;;;;;;6236315;23;20176;-94
2022/08/22 03:21:58;;;;;;;5.83;2.53;;;23.20;99.90;;;;;;6233006;23;20172;-94
2022/08/22 03:24:35;;;;;;;5.10;4.30;;;23.10;99.90;;;;;;6223156;23;20184;-94
2022/08/22 03:30:20;;;;;;;4.03;2.67;;;22.90;99.90;;;;;;6207256;23;20243;-94
2022/08/22 03:32:55;;;;;;;6.00;2.30;;;22.80;99.90;;;;;;6199411;23;20215;-93
2022/08/22 03:35:35;;;;;;;4.37;2.70;;;22.70;99.90;;;;;;6208050;23;20222;-93
2022/08/22 03:42:10;;;;;;;5.83;3.27;;;22.50;99.90;;;;;;6203054;23;20204;-93
2022/08/22 03:45:16;;;;;;;11.33;5.43;;;22.40;99.90;;;;;;6187940;23;20204;-93
2022/08/22 03:48:02;;;;;;;10.63;5.57;;;22.20;99.90;;;;;;6211729;23;20173;-92
2022/08/22 03:51:06;;;;;;;8.13;5.00;;;21.70;99.90;;;;;;6187093;23;20165;-92
2022/08/22 03:54:01;;;;;;;3.60;2.77;;;21.50;99.90;;;;;;6191850;23;20197;-94
2022/08/22 03:57:10;;;;;;;6.97;2.97;;;21.40;99.90;;;;;;6209939;23;20192;-91
2022/08/22 04:00:21;;;;;;;4.37;2.50;;;21.30;99.90;;;;;;6188922;23;20177;-93
2022/08/22 04:06:03;;;;;;;3.77;2.50;;;21.40;99.90;;;;;;6145816;23;20189;-93
2022/08/22 04:09:12;;;;;;;4.73;2.60;;;21.40;99.90;;;;;;6147784;23;20177;-93
2022/08/22 04:12:19;;;;;;;3.37;2.43;;;21.40;99.90;;;;;;6134363;23;20225;-93
2022/08/22 04:15:19;;;;;;;3.20;2.70;;;21.40;99.90;;;;;;6137729;23;20206;-93
2022/08/22 04:18:18;;;;;;;3.23;2.50;;;21.40;99.90;;;;;;6140526;23;20182;-92
2022/08/22 04:21:31;;;;;;;5.70;2.60;;;21.30;99.90;;;;;;6133005;23;20182;-93
2022/08/22 04:24:18;;;;;;;3.87;2.67;;;21.20;99.90;;;;;;6140701;23;20308;-94
2022/08/22 04:26:57;;;;;;;2.77;2.57;;;21.20;99.90;;;;;;6131856;23;20186;-93
2022/08/22 04:29:34;;;;;;;3.67;2.97;;;21.20;99.90;;;;;;6135462;23;20185;-94
2022/08/22 04:32:13;;;;;;;3.03;2.80;;;21.20;99.90;;;;;;6140877;23;20244;-93
2022/08/22 04:35:01;;;;;;;2.90;2.43;;;21.20;99.90;;;;;;6149057;23;20245;-94
2022/08/22 04:37:42;;;;;;;4.07;2.80;;;21.10;99.90;;;;;;6119128;23;20175;-94
2022/08/22 04:40:23;;;;;;;4.03;2.90;;;21.00;99.90;;;;;;6143205;23;20188;-94
2022/08/22 04:43:00;;;;;;;3.97;2.93;;;21.00;99.90;;;;;;6133315;23;20190;-93
2022/08/22 04:45:38;;;;;;;3.27;2.80;;;21.00;99.90;;;;;;6138099;23;20185;-94
2022/08/22 04:48:16;;;;;;;3.20;2.83;;;21.00;99.90;;;;;;6141849;23;20193;-93
2022/08/22 04:50:55;;;;;;;4.57;2.60;;;21.00;99.90;;;;;;6139901;23;20174;-93
2022/08/22 04:54:11;;;;;;;3.30;2.83;;;21.00;99.90;;;;;;6162242;23;20221;-92
2022/08/22 04:56:53;;;;;;;3.53;2.90;;;20.90;99.90;;;;;;6154149;23;20311;-93
2022/08/22 04:59:27;;;;;;;3.80;3.00;;;20.90;99.90;;;;;;6169863;23;20178;-92
2022/08/22 05:02:05;;;;;;;3.30;2.83;;;20.80;99.90;;;;;;6170180;23;20186;-92
2022/08/22 05:04:40;;;;;;;3.03;2.70;;;20.80;99.90;;;;;;6168179;23;20241;-93
2022/08/22 05:07:21;;;;;;;4.67;3.07;;;20.80;99.90;;;;;;6167235;23;20199;-93
2022/08/22 05:09:57;;;;;;;5.17;3.63;;;20.70;99.90;;;;;;6168558;23;20185;-93
2022/08/22 05:12:42;;;;;;;4.30;3.10;;;20.70;99.90;;;;;;6167312;23;20248;-93
2022/08/22 05:15:18;;;;;;;3.63;3.23;;;20.70;99.90;;;;;;6167138;23;20209;-93
2022/08/22 05:17:54;;;;;;;3.43;3.13;;;20.60;99.90;;;;;;6163361;23;20523;-93
2022/08/22 05:20:30;;;;;;;3.37;3.03;;;20.60;99.90;;;;;;6163015;23;20178;-93
2022/08/22 05:23:11;;;;;;;3.50;3.20;;;20.50;99.90;;;;;;6167970;23;20165;-93
2022/08/22 05:25:50;;;;;;;4.37;3.13;;;20.50;99.90;;;;;;6168564;23;20206;-92
2022/08/22 05:28:33;;;;;;;3.07;2.77;;;20.50;99.90;;;;;;6181251;23;20173;-92
2022/08/22 05:31:09;;;;;;;3.60;3.20;;;20.50;99.90;;;;;;6182637;23;20157;-94
2022/08/22 05:33:55;;;;;;;5.27;2.73;;;20.50;99.90;;;;;;6182807;23;20312;-93
2022/08/22 05:36:42;;;;;;;4.83;2.90;;;20.60;99.90;;;;;;6199275;23;20264;-92
2022/08/22 05:39:21;;;;;;;3.53;2.73;;;20.70;99.90;;;;;;6212696;23;20648;-93
2022/08/22 05:41:56;;;;;;;3.57;2.90;;;20.60;99.90;;;;;;6210836;23;20181;-93
2022/08/22 05:44:32;;;;;;;3.30;3.00;;;20.60;99.90;;;;;;6206123;23;20165;-94
2022/08/22 05:47:13;;;;;;;3.73;2.90;;;20.60;99.90;;;;;;6212658;23;20165;-93
2022/08/22 05:49:53;;;;;;;3.63;2.63;;;20.60;99.90;;;;;;6208911;23;20184;-92
2022/08/22 05:52:45;;;;;;;3.70;2.90;;;20.60;99.90;;;;;;6194633;23;20196;-93
2022/08/22 05:55:27;;;;;;;4.47;2.97;;;20.60;99.90;;;;;;6192514;23;20562;-93
2022/08/22 05:58:30;;;;;;;4.00;3.00;;;20.50;99.90;;;;;;6192666;23;20223;-93
2022/08/22 06:01:14;;;;;;;3.63;2.80;;;20.40;99.90;;;;;;6193691;23;20645;-94
2022/08/22 06:03:57;;;;;;;3.17;2.73;;;20.40;99.90;;;;;;6195276;23;20184;-94
2022/08/22 06:06:31;;;;;;;4.43;2.97;;;20.30;99.90;;;;;;6192001;23;20627;-94
2022/08/22 06:09:07;;;;;;;2.90;2.70;;;20.30;99.90;;;;;;6196871;23;20173;-93
2022/08/22 06:11:45;;;;;;;3.07;2.80;;;20.20;99.90;;;;;;6193558;23;20176;-93
2022/08/22 06:14:29;;;;;;;4.67;2.90;;;20.20;99.90;;;;;;6194299;23;20177;-92
2022/08/22 06:17:09;;;;;;;5.03;3.00;;;20.20;99.90;;;;;;6192230;23;20261;-93
2022/08/22 06:19:43;;;;;;;3.20;2.90;;;20.10;99.90;;;;;;6191506;23;20236;-93
2022/08/22 06:22:18;;;;;;;3.00;2.77;;;20.10;99.90;;;;;;6190308;23;20173;-92
2022/08/22 06:24:52;;;;;;;2.93;2.73;;;20.10;99.90;;;;;;6191239;23;20243;-93
2022/08/22 06:30:22;;;;;;;3.23;2.57;;;20.00;99.90;;;;;;6212093;23;20207;-93
2022/08/22 06:33:00;;;;;;;2.83;2.60;;;19.90;99.90;;;;;;6210860;23;20181;-92
2022/08/22 06:38:22;;;;;;;3.00;2.70;;;19.90;99.90;;;;;;6181745;23;20166;-93
2022/08/22 06:40:55;;;;;;;3.10;2.80;;;19.80;99.90;;;;;;6164092;23;20222;-93
2022/08/22 06:43:34;;;;;;;3.00;2.70;;;19.80;99.90;;;;;;6162384;23;20628;-93
2022/08/22 06:46:07;;;;;;;2.50;2.30;;;19.70;99.90;;;;;;6162105;23;20228;-93
2022/08/22 06:48:40;;;;;;;3.93;2.80;;;19.70;99.90;;;;;;6162180;23;20304;-94
2022/08/22 06:51:21;;;;;;;2.70;2.50;;;19.70;99.90;;;;;;6161008;23;20177;-93
2022/08/22 06:54:02;;;;;;;2.50;2.23;;;19.60;99.90;;;;;;6161041;23;20201;-94
2022/08/22 06:56:40;;;;;;;2.63;2.40;;;19.60;99.90;;;;;;6168161;23;20201;-94
2022/08/22 06:59:16;;;;;;;3.00;2.23;;;19.60;99.90;;;;;;6160500;23;20170;-94
2022/08/22 07:01:55;;;;;;;3.67;2.57;;;19.60;99.90;;;;;;6135595;23;20181;-94
2022/08/22 07:04:28;;;;;;;6.80;2.47;;;19.50;99.90;;;;;;6164130;23;20185;-94
2022/08/22 07:07:02;;;;;;;2.60;2.40;;;19.50;99.90;;;;;;6160095;23;20178;-94
2022/08/22 07:09:35;;;;;;;2.43;2.23;;;19.40;99.90;;;;;;6163487;23;20177;-92
2022/08/22 07:12:14;;;;;;;2.40;2.20;;;19.30;99.90;;;;;;6161465;23;20181;-92
2022/08/22 07:14:50;;;;;;;3.10;2.20;;;19.30;99.90;;;;;;6169049;23;20185;-93
2022/08/22 07:17:24;;;;;;;3.70;2.13;;;19.30;99.90;;;;;;6169198;23;20538;-93
2022/08/22 07:20:00;;;;;;;2.20;2.00;;;19.20;99.90;;;;;;6163775;23;20170;-93
2022/08/22 07:22:38;;;;;;;2.87;2.40;;;19.30;99.90;;;;;;6161981;23;20205;-93
2022/08/22 07:25:13;;;;;;;2.87;1.93;;;19.30;99.90;;;;;;6163448;23;20252;-94
2022/08/22 07:28:01;;;;;;;4.37;2.10;;;19.20;99.90;;;;;;6162285;23;20170;-92
2022/08/22 07:30:55;;;;;;;2.70;2.50;;;19.20;99.90;;;;;;6164833;23;20189;-93
2022/08/22 07:33:44;;;;;;;2.10;1.87;;;19.20;99.90;;;;;;6161096;23;20185;-93
2022/08/22 07:36:29;;;;;;;3.07;2.20;;;19.20;99.90;;;;;;6170933;23;20204;-92
2022/08/22 07:39:25;;;;;;;2.20;2.00;;;19.10;99.90;;;;;;6190512;23;20196;-93
2022/08/22 07:42:06;;;;;;;2.47;2.00;;;19.00;99.90;;;;;;6190308;23;20179;-92
2022/08/22 07:44:44;;;;;;;2.67;2.00;;;19.00;99.90;;;;;;6190711;23;20264;-93
2022/08/22 07:47:21;;;;;;;2.97;2.30;;;19.00;99.90;;;;;;6190786;23;20177;-92
2022/08/22 07:49:58;;;;;;;2.07;1.93;;;18.90;99.90;;;;;;6189930;23;20205;-92
2022/08/22 07:52:36;;;;;;;2.37;2.17;;;18.90;99.90;;;;;;6190042;23;20197;-93
2022/08/22 07:55:17;;;;;;;2.30;2.10;;;18.90;99.90;;;;;;6190449;23;20181;-93
2022/08/22 07:57:53;;;;;;;2.00;1.90;;;18.80;99.90;;;;;;6191152;23;20181;-93
2022/08/22 08:00:27;;;;;;;2.00;1.90;;;18.70;99.90;;;;;;6192664;23;20177;-92
2022/08/22 08:03:05;;;;;;;2.53;2.33;;;18.70;99.90;;;;;;6195749;23;20181;-93
2022/08/22 08:05:39;;;;;;;2.10;2.00;;;18.70;99.90;;;;;;6210051;23;20177;-93
2022/08/22 08:08:15;;;;;;;2.40;2.20;;;18.60;99.90;;;;;;6210514;23;20169;-92
2022/08/22 08:10:49;;;;;;;3.27;2.20;;;18.60;99.90;;;;;;6200662;23;20177;-92
2022/08/22 08:13:26;;;;;;;2.03;1.93;;;18.50;99.90;;;;;;6190901;23;20173;-92
2022/08/22 08:15:58;;;;;;;3.63;1.83;;;18.50;99.90;;;;;;6191248;23;20224;-93
2022/08/22 08:18:35;;;;;;;3.43;2.00;;;18.50;99.90;;;;;;6191502;23;20181;-92
2022/08/22 08:21:09;;;;;;;2.37;2.13;;;18.50;99.90;;;;;;6191830;23;20213;-93
2022/08/22 08:23:47;;;;;;;2.07;1.90;;;18.40;99.90;;;;;;6190929;23;20194;-92
2022/08/22 08:26:22;;;;;;;1.90;1.80;;;18.40;99.90;;;;;;6191547;23;20188;-93
2022/08/22 08:28:54;;;;;;;2.40;2.20;;;18.40;99.90;;;;;;6190656;23;20243;-93
2022/08/22 08:31:30;;;;;;;2.20;1.90;;;18.30;99.90;;;;;;6192711;23;20181;-93
2022/08/22 08:34:18;;;;;;;2.47;2.10;;;18.30;99.90;;;;;;6191161;23;20519;-93
2022/08/22 08:36:54;;;;;;;2.37;2.03;;;18.20;99.90;;;;;;6190153;23;20205;-93
2022/08/22 08:39:34;;;;;;;2.23;2.03;;;18.20;99.90;;;;;;6191005;23;20257;-93
2022/08/22 08:45:46;;;;;;;1.93;1.83;;;18.20;99.90;;;;;;6189590;23;20173;-94
2022/08/22 08:48:45;;;;;;;3.87;2.17;;;18.10;99.90;;;;;;6190591;23;20256;-93
2022/08/22 08:51:40;;;;;;;2.77;1.93;;;18.10;99.90;;;;;;6190122;23;20619;-93
2022/08/22 08:54:45;;;;;;;2.37;1.70;;;18.10;99.90;;;;;;6190657;23;20223;-93
2022/08/22 08:57:30;;;;;;;1.97;1.77;;;18.00;99.90;;;;;;6187237;23;20256;-93
2022/08/22 09:00:09;;;;;;;2.30;2.10;;;18.00;99.90;;;;;;6190847;23;20248;-93
2022/08/22 09:02:58;;;;;;;1.60;1.50;;;18.00;99.90;;;;;;6190187;23;20176;-93
2022/08/22 09:06:02;;;;;;;2.47;1.80;;;18.00;99.90;;;;;;6191243;23;20173;-93
2022/08/22 09:12:11;;;;;;;2.00;1.80;;;17.90;99.90;;;;;;5053228;27;2981234;-93
2022/08/22 09:15:17;;;;;;;2.13;1.73;;;17.80;99.90;;;;;;5135317;28;20202;-93
2022/08/22 09:18:23;;;;;;;2.20;2.00;;;17.80;99.90;;;;;;5135378;28;20205;-93
2022/08/22 09:21:23;;;;;;;2.00;1.80;;;17.80;99.90;;;;;;5135268;28;20302;-93
2022/08/22 09:24:38;;;;;;;2.60;1.63;;;17.80;99.90;;;;;;5135321;28;20236;-93
2022/08/22 09:27:17;;;;;;;1.90;1.60;;;17.70;99.90;;;;;;5134893;28;20625;-93
2022/08/22 09:29:53;;;;;;;1.93;1.73;;;17.70;99.90;;;;;;5135608;28;20225;-94
2022/08/22 09:32:47;;;;;;;1.87;1.70;;;17.70;99.90;;;;;;5134284;28;20201;-93
2022/08/22 09:35:28;;;;;;;2.10;1.80;;;17.70;99.90;;;;;;5135836;28;20258;-93
2022/08/22 09:38:17;;;;;;;2.50;1.60;;;17.80;99.90;;;;;;5136423;28;20201;-93
2022/08/22 09:40:57;;;;;;;1.77;1.67;;;17.80;99.90;;;;;;5135026;28;20213;-93
2022/08/22 09:43:39;;;;;;;1.80;1.70;;;17.80;99.90;;;;;;5134294;28;20213;-93
2022/08/22 09:46:22;;;;;;;1.70;1.60;;;17.80;99.90;;;;;;5134915;28;20250;-93
2022/08/22 09:49:11;;;;;;;1.47;1.30;;;17.80;99.90;;;;;;5135131;28;20646;-93
2022/08/22 09:52:04;;;;;;;2.77;2.20;;;17.80;99.90;;;;;;5124070;28;20661;-93
2022/08/22 09:55:04;;;;;;;2.03;1.60;;;17.80;99.90;;;;;;5112836;28;20198;-92
2022/08/22 09:57:41;;;;;;;3.50;1.50;;;17.80;99.90;;;;;;5114601;28;20202;-93
2022/08/22 10:00:26;;;;;;;1.70;1.60;;;17.80;99.90;;;;;;5116857;28;20553;-93
2022/08/22 10:03:06;;;;;;;3.17;1.70;;;17.70;99.90;;;;;;5112379;28;20654;-93
2022/08/22 10:05:46;;;;;;;1.90;1.50;;;17.60;99.90;;;;;;5114891;28;20218;-93
2022/08/22 10:08:44;;;;;;;2.10;1.63;;;17.70;99.90;;;;;;5098489;28;20247;-93
2022/08/22 10:11:27;;;;;;;2.77;1.70;;;17.70;99.90;;;;;;5112798;28;20234;-93
2022/08/22 10:14:04;;;;;;;2.20;1.70;;;17.70;99.90;;;;;;5115918;28;20210;-93
2022/08/22 10:17:01;;;;;;;1.97;1.63;;;17.60;99.90;;;;;;5115037;28;20206;-93
2022/08/22 10:19:37;;;;;;;1.77;1.60;;;17.50;99.90;;;;;;5116245;28;20250;-93
2022/08/22 10:22:24;;;;;;;1.43;1.33;;;17.50;99.90;;;;;;5104527;28;20213;-93
2022/08/22 10:25:26;;;;;;;1.80;1.70;;;17.50;99.90;;;;;;5100300;28;20252;-93
2022/08/22 10:28:13;;;;;;;1.50;1.40;;;17.50;99.90;;;;;;5096342;28;20237;-94
2022/08/22 10:30:56;;;;;;;2.03;1.70;;;17.50;99.90;;;;;;5103052;28;20284;-94
2022/08/22 10:33:36;;;;;;;1.60;1.50;;;17.50;99.90;;;;;;5100441;28;20207;-93
2022/08/22 10:36:12;;;;;;;4.40;1.43;;;17.50;99.90;;;;;;5096520;28;20290;-93
2022/08/22 10:38:47;;;;;;;2.27;1.77;;;17.40;99.90;;;;;;5099739;28;20214;-93
2022/08/22 10:41:30;;;;;;;2.40;1.87;;;17.40;99.90;;;;;;5099933;28;20221;-95
2022/08/22 10:44:08;;;;;;;2.17;1.50;;;17.40;99.90;;;;;;5102254;28;20215;-93
2022/08/22 10:46:45;;;;;;;2.00;1.60;;;17.40;99.90;;;;;;5102085;28;20214;-93
2022/08/22 10:49:24;;;;;;;1.90;1.30;;;17.30;99.90;;;;;;5099862;28;20229;-93
2022/08/22 10:52:04;;;;;;;1.53;1.40;;;17.30;99.90;;;;;;5100696;28;20235;-94
2022/08/22 10:54:50;;;;;;;2.37;1.57;;;17.30;99.90;;;;;;5101759;28;20203;-93
2022/08/22 10:57:44;;;;;;;2.27;1.30;;;17.30;99.90;;;;;;5099865;28;20203;-93
2022/08/22 11:00:38;;;;;;;2.30;1.40;;;17.30;99.90;;;;;;5099419;28;20211;-93
2022/08/22 11:03:20;;;;;;;1.93;1.60;;;17.20;99.90;;;;;;5098242;28;20211;-93
2022/08/22 11:06:01;;;;;;;2.33;1.40;;;17.20;99.90;;;;;;5083475;28;20213;-93
2022/08/22 11:08:59;;;;;;;1.97;1.60;;;17.20;99.90;;;;;;5100569;28;20305;-93
2022/08/22 11:11:40;;;;;;;2.33;1.20;;;17.10;99.90;;;;;;5086257;28;20296;-93
2022/08/22 11:14:50;;;;;;;1.70;1.40;;;17.20;99.90;;;;;;5098059;28;20214;-92
2022/08/22 11:17:35;;;;;;;1.73;1.50;;;17.30;99.90;;;;;;5085372;28;20203;-93
2022/08/22 11:20:22;;;;;;;1.40;1.30;;;17.20;99.90;;;;;;5079351;28;20219;-93
2022/08/22 11:23:11;;;;;;;2.13;1.67;;;17.30;99.90;;;;;;5080386;28;20214;-93
2022/08/22 11:25:54;;;;;;;2.33;1.50;;;17.20;99.90;;;;;;5080687;28;20211;-93
2022/08/22 11:28:58;;;;;;;2.23;1.43;;;17.10;99.90;;;;;;5081564;28;20242;-93
2022/08/22 11:31:51;;;;;;;2.43;1.60;;;17.10;99.90;;;;;;5078751;28;20326;-94
2022/08/22 11:34:34;;;;;;;3.03;1.30;;;17.10;99.90;;;;;;5077597;28;20215;-93
2022/08/22 11:37:13;;;;;;;2.60;1.50;;;17.10;99.90;;;;;;5078338;28;20210;-94
2022/08/22 11:40:02;;;;;;;5.10;1.60;;;17.00;99.90;;;;;;5078021;28;20227;-93
2022/08/22 11:42:38;;;;;;;1.40;1.30;;;17.00;99.90;;;;;;5078082;28;20243;-93
2022/08/22 11:45:21;;;;;;;1.70;1.20;;;16.90;99.90;;;;;;5078179;28;20651;-93
2022/08/22 11:47:59;;;;;;;1.57;1.47;;;16.90;99.90;;;;;;5078013;28;20207;-93
2022/08/22 11:50:38;;;;;;;3.00;1.47;;;16.80;99.90;;;;;;5078651;28;20211;-93
2022/08/22 11:53:27;;;;;;;1.60;1.50;;;16.90;99.90;;;;;;5077584;28;20226;-93
2022/08/22 11:56:14;;;;;;;1.63;1.37;;;16.80;99.90;;;;;;5064641;28;20225;-93
2022/08/22 11:58:57;;;;;;;1.70;1.60;;;16.90;99.90;;;;;;5107673;28;20203;-93
2022/08/22 12:01:38;;;;;;;1.43;1.33;;;16.70;99.90;;;;;;5117266;28;20195;-94
2022/08/22 12:04:18;;;;;;;1.87;1.57;;;16.70;99.90;;;;;;5117886;28;20191;-93
2022/08/22 12:07:01;;;;;;;2.63;1.37;;;16.70;99.90;;;;;;5118111;28;20186;-93
2022/08/22 12:09:49;;;;;;;1.87;1.77;;;16.60;99.90;;;;;;5117943;28;20190;-93
2022/08/22 12:12:47;;;;;;;1.77;1.40;;;16.50;99.90;;;;;;5098596;28;20297;-93
2022/08/22 12:15:22;;;;;;;2.00;1.70;;;16.50;99.90;;;;;;5098549;28;20230;-93
2022/08/22 12:18:42;;;;;;;1.43;1.33;;;16.50;99.90;;;;;;5098468;28;20213;-93
2022/08/22 12:22:03;;;;;;;2.43;1.40;;;16.40;99.90;;;;;;5097554;28;20307;-93
2022/08/22 12:25:03;;;;;;;2.50;1.70;;;16.40;99.90;;;;;;5057529;28;20580;-93
2022/08/22 12:27:59;;;;;;;1.80;1.50;;;16.30;99.90;;;;;;5101146;28;20195;-93
2022/08/22 12:30:41;;;;;;;1.67;1.57;;;16.20;99.90;;;;;;5099499;28;20206;-92
2022/08/22 12:33:37;;;;;;;1.77;1.67;;;16.20;99.90;;;;;;5097467;28;20238;-93
2022/08/22 12:36:41;;;;;;;1.53;1.23;;;16.10;99.90;;;;;;5097618;28;20207;-93
2022/08/22 12:39:44;;;;;;;1.87;1.53;;;16.10;99.90;;;;;;5097990;28;20210;-93
2022/08/22 12:42:51;;;;;;;2.43;1.40;;;16.10;99.90;;;;;;5097317;28;20557;-93
2022/08/22 12:45:45;;;;;;;1.70;1.60;;;16.00;99.90;;;;;;5079034;28;20203;-93
2022/08/22 12:48:41;;;;;;;1.50;1.40;;;16.00;99.90;;;;;;5097257;28;20198;-93
2022/08/22 12:51:28;;;;;;;2.00;1.60;;;16.00;99.90;;;;;;5097855;28;20268;-94
2022/08/22 12:54:38;;;;;;;2.00;1.50;;;15.90;99.90;;;;;;5097501;28;20211;-92
2022/08/22 12:57:22;;;;;;;1.73;1.63;;;15.90;99.90;;;;;;5098234;28;20290;-92
2022/08/22 12:59:57;;;;;;;1.70;1.60;;;15.90;99.90;;;;;;5079674;28;20351;-93
2022/08/22 13:02:38;;;;;;;3.43;2.20;;;15.90;99.90;;;;;;5096668;28;20727;-93
2022/08/22 13:05:15;;;;;;;1.50;1.40;;;15.90;99.90;;;;;;5097741;28;20214;-93
2022/08/22 13:07:54;;;;;;;1.50;1.40;;;15.90;99.90;;;;;;5097321;28;20226;-93
2022/08/22 13:10:46;;;;;;;1.83;1.63;;;15.90;99.90;;;;;;5098556;28;20215;-92
2022/08/22 13:13:27;;;;;;;3.07;1.77;;;15.90;99.90;;;;;;5100867;28;20235;-93
2022/08/22 13:16:09;;;;;;;2.80;1.70;;;15.80;99.90;;;;;;5107895;28;20565;-92
2022/08/22 13:18:51;;;;;;;1.73;1.60;;;15.80;99.90;;;;;;5112274;28;20207;-92
2022/08/22 13:21:27;;;;;;;2.00;1.70;;;15.80;99.90;;;;;;5111126;28;20650;-93
2022/08/22 13:24:08;;;;;;;2.07;1.57;;;15.70;99.90;;;;;;5097679;28;20209;-92
2022/08/22 13:26:49;;;;;;;2.00;1.70;;;15.70;99.90;;;;;;5097040;28;20202;-92
2022/08/22 13:29:25;;;;;;;2.43;1.90;;;15.70;99.90;;;;;;5096440;28;20218;-93
2022/08/22 13:32:21;;;;;;;2.20;1.53;;;15.70;99.90;;;;;;5096016;28;20238;-93
2022/08/22 13:34:58;;;;;;;2.10;1.60;;;15.70;99.90;;;;;;5097207;28;20225;-93
2022/08/22 13:37:36;;;;;;;3.30;1.60;;;15.70;99.90;;;;;;5079082;28;20210;-92
2022/08/22 13:40:12;;;;;;;1.60;1.50;;;15.80;99.90;;;;;;5096986;28;20221;-92
2022/08/22 13:42:48;;;;;;;1.40;1.30;;;15.70;99.90;;;;;;5096115;28;20213;-92
2022/08/22 13:45:26;;;;;;;1.90;1.47;;;15.70;99.90;;;;;;5097412;28;20218;-93
2022/08/22 13:48:03;;;;;;;3.27;1.33;;;15.70;99.90;;;;;;5096294;28;20302;-92
2022/08/22 13:50:57;;;;;;;1.63;1.53;;;15.70;99.90;;;;;;5095627;28;20241;-92
2022/08/22 13:53:37;;;;;;;2.07;1.47;;;15.70;99.90;;;;;;5098077;28;20719;-93
2022/08/22 13:56:12;;;;;;;3.73;1.63;;;15.70;99.90;;;;;;5081543;28;20221;-93
2022/08/22 13:58:47;;;;;;;2.00;1.50;;;15.70;99.90;;;;;;5102447;28;20484;-92
2022/08/22 14:01:31;;;;;;;2.40;1.43;;;15.80;99.90;;;;;;5104735;28;20207;-93
2022/08/22 14:04:11;;;;;;;1.50;1.40;;;15.70;99.90;;;;;;5100288;28;20211;-93
2022/08/22 14:07:23;;;;;;;3.53;1.83;;;15.80;99.90;;;;;;5102632;28;20218;-92
2022/08/22 14:09:57;;;;;;;3.57;2.37;;;15.80;99.90;;;;;;5099758;28;20260;-92
2022/08/22 14:12:35;;;;;;;3.00;2.20;;;15.80;99.90;;;;;;5099164;28;20226;-92
2022/08/22 14:15:25;;;;;;;3.10;2.20;;;15.80;99.90;;;;;;5099966;28;20298;-93
2022/08/22 14:18:18;;;;;;;2.57;1.97;;;15.90;99.90;;;;;;5099779;28;20203;-93
2022/08/22 14:21:33;;;;;;;4.73;1.90;;;15.90;99.90;;;;;;5100087;28;20281;-93
2022/08/22 14:24:20;;;;;;;2.60;1.50;;;16.00;99.90;;;;;;5099938;28;20218;-93
2022/08/22 14:27:01;;;;;;;2.80;1.70;;;16.00;99.90;;;;;;5099697;28;20244;-92
2022/08/22 14:29:40;;;;;;;2.83;1.60;;;16.10;99.90;;;;;;5099379;28;20199;-93
2022/08/22 14:32:31;;;;;;;1.40;1.20;;;16.10;99.90;;;;;;5078516;28;20222;-93
2022/08/22 14:35:14;;;;;;;1.50;1.40;;;16.20;99.90;;;;;;5079439;28;20207;-93
2022/08/22 14:38:15;;;;;;;7.83;1.50;;;16.30;99.90;;;;;;5081211;28;20196;-93
2022/08/22 14:40:54;;;;;;;2.70;1.30;;;16.30;99.90;;;;;;5080975;28;20713;-92
2022/08/22 14:43:58;;;;;;;1.60;1.30;;;16.40;99.90;;;;;;5078714;28;20215;-93
2022/08/22 14:46:45;;;;;;;3.43;1.40;;;16.40;99.90;;;;;;5079981;28;20203;-92
2022/08/22 14:49:31;;;;;;;1.20;1.10;;;16.60;99.90;;;;;;5079413;28;20329;-92
2022/08/22 14:52:10;;;;;;;3.27;1.30;;;16.60;99.90;;;;;;5079588;28;20235;-93
2022/08/22 14:54:49;;;;;;;3.63;1.00;;;16.70;99.90;;;;;;5078699;28;20200;-92
2022/08/22 14:57:22;;;;;;;2.13;1.30;;;16.80;99.90;;;;;;5078330;28;20212;-92
2022/08/22 14:59:55;;;;;;;3.33;1.50;;;16.90;99.90;;;;;;5079173;28;20273;-92
2022/08/22 15:02:29;;;;;;;1.93;1.20;;;17.00;99.90;;;;;;5080765;28;20596;-92
2022/08/22 15:05:12;;;;;;;8.80;1.20;;;17.10;99.90;;;;;;5084667;28;20214;-94
2022/08/22 15:07:55;;;;;;;1.13;0.90;;;17.20;99.90;;;;;;5088755;28;20219;-95
2022/08/22 15:10:30;;;;;;;2.73;1.00;;;17.30;99.90;;;;;;5080334;28;20222;-94
2022/08/22 15:13:09;;;;;;;1.77;1.23;;;17.40;99.90;;;;;;5081299;28;20227;-91
2022/08/22 15:15:44;;;;;;;2.30;1.30;;;17.50;99.90;;;;;;5094666;28;20207;-92
2022/08/22 15:18:36;;;;;;;1.70;1.30;;;17.70;99.90;;;;;;5102641;28;20595;-93